37.2°F
Current conditions from King Hill
Updated every 5 minutes
 
  Friday October 31, 2014

Station Historical Data
Daily Summary for February 13, 2012 Units:  Both    English   Metric
« Previous Day
Next Day »
Daily Weekly Monthly Yearly Custom
  High: Low: Average:
Temperature: 28.8 °F /  -1.8 °C 11.8 °F /  -11.2 °C 20.7 °F /  -6.3 °C
Dew Point: 18.6 °F /  -7.4 °C 2.0 °F /  -16.7 °C 11 °F /  -11.7 °C
Humidity: 89% 50% 66%
Wind Speed: 8.0mph /  12.9km/h - 3.2mph /  5.1km/h
Wind Gust: 15.0mph /  24.1km/h - -
Wind- - WSW
Pressure: 29.89 in /  1012.1 hPa 29.75 in /  1007.3 hPa -
Precipitation: 0.00 in /  0 mm    
Historical Graphs
 
 
Tabular Data for February 13, 2012
Time Temperature Dew Point Pressure Wind Wind Speed Wind Gust Humidity Daily Rainfall
00:00 11.8 °F /  -11.2 °C 2.0 °F /  -16.7 °C 29.82in /  1009.7hPa WSW 2.0mph /  3.2km/h 10.0mph /  16.1km/h 64% 0.00in /  0mm
00:05 11.8 °F /  -11.2 °C 2.0 °F /  -16.7 °C 29.82in /  1009.7hPa West 5.0mph /  8km/h 8.0mph /  12.9km/h 64% 0.00in /  0mm
00:10 11.9 °F /  -11.2 °C 2.1 °F /  -16.6 °C 29.82in /  1009.7hPa WSW 3.0mph /  4.8km/h 8.0mph /  12.9km/h 64% 0.00in /  0mm
00:15 11.9 °F /  -11.2 °C 2.4 °F /  -16.4 °C 29.82in /  1009.7hPa WSW 4.0mph /  6.4km/h 12.0mph /  19.3km/h 65% 0.00in /  0mm
00:20 11.9 °F /  -11.2 °C 2.4 °F /  -16.4 °C 29.82in /  1009.7hPa SW 4.0mph /  6.4km/h 12.0mph /  19.3km/h 65% 0.00in /  0mm
00:25 11.9 °F /  -11.2 °C 2.7 °F /  -16.3 °C 29.81in /  1009.4hPa WSW 2.0mph /  3.2km/h 7.0mph /  11.3km/h 66% 0.00in /  0mm
00:30 12.0 °F /  -11.1 °C 2.8 °F /  -16.2 °C 29.81in /  1009.4hPa WSW 5.0mph /  8km/h 9.0mph /  14.5km/h 66% 0.00in /  0mm
00:35 12.0 °F /  -11.1 °C 2.5 °F /  -16.4 °C 29.81in /  1009.4hPa SW 4.0mph /  6.4km/h 9.0mph /  14.5km/h 65% 0.00in /  0mm
00:40 12.1 °F /  -11.1 °C 2.9 °F /  -16.2 °C 29.81in /  1009.4hPa SW 1.0mph /  1.6km/h 9.0mph /  14.5km/h 66% 0.00in /  0mm
00:45 12.0 °F /  -11.1 °C 2.8 °F /  -16.2 °C 29.80in /  1009hPa SW 3.0mph /  4.8km/h 8.0mph /  12.9km/h 66% 0.00in /  0mm
00:50 12.1 °F /  -11.1 °C 2.9 °F /  -16.2 °C 29.80in /  1009hPa SW 3.0mph /  4.8km/h 8.0mph /  12.9km/h 66% 0.00in /  0mm
00:55 12.2 °F /  -11 °C 3.0 °F /  -16.1 °C 29.80in /  1009hPa WSW 5.0mph /  8km/h 10.0mph /  16.1km/h 66% 0.00in /  0mm
01:00 12.2 °F /  -11 °C 3.0 °F /  -16.1 °C 29.80in /  1009hPa WSW 5.0mph /  8km/h 10.0mph /  16.1km/h 66% 0.00in /  0mm
01:05 12.3 °F /  -10.9 °C 3.1 °F /  -16.1 °C 29.79in /  1008.7hPa WSW 4.0mph /  6.4km/h 9.0mph /  14.5km/h 66% 0.00in /  0mm
01:10 12.5 °F /  -10.8 °C 3.3 °F /  -15.9 °C 29.80in /  1009hPa WSW 3.0mph /  4.8km/h 9.0mph /  14.5km/h 66% 0.00in /  0mm
01:15 12.6 °F /  -10.8 °C 3.4 °F /  -15.9 °C 29.79in /  1008.7hPa West 6.0mph /  9.7km/h 13.0mph /  20.9km/h 66% 0.00in /  0mm
01:20 12.8 °F /  -10.7 °C 3.6 °F /  -15.8 °C 29.79in /  1008.7hPa West 4.0mph /  6.4km/h 13.0mph /  20.9km/h 66% 0.00in /  0mm
01:25 12.8 °F /  -10.7 °C 3.6 °F /  -15.8 °C 29.79in /  1008.7hPa WSW 3.0mph /  4.8km/h 10.0mph /  16.1km/h 66% 0.00in /  0mm
01:30 13.0 °F /  -10.6 °C 3.8 °F /  -15.7 °C 29.78in /  1008.4hPa WSW 3.0mph /  4.8km/h 10.0mph /  16.1km/h 66% 0.00in /  0mm
01:40 13.2 °F /  -10.4 °C 4.0 °F /  -15.6 °C 29.78in /  1008.4hPa WSW 3.0mph /  4.8km/h 9.0mph /  14.5km/h 66% 0.00in /  0mm
01:45 13.4 °F /  -10.3 °C 3.8 °F /  -15.7 °C 29.78in /  1008.4hPa WSW 3.0mph /  4.8km/h 9.0mph /  14.5km/h 65% 0.00in /  0mm
01:50 13.5 °F /  -10.3 °C 3.9 °F /  -15.6 °C 29.78in /  1008.4hPa WSW 4.0mph /  6.4km/h 9.0mph /  14.5km/h 65% 0.00in /  0mm
01:55 13.7 °F /  -10.2 °C 4.1 °F /  -15.5 °C 29.78in /  1008.4hPa WSW 5.0mph /  8km/h 11.0mph /  17.7km/h 65% 0.00in /  0mm
02:00 14.0 °F /  -10 °C 4.1 °F /  -15.5 °C 29.78in /  1008.4hPa WSW 4.0mph /  6.4km/h 11.0mph /  17.7km/h 64% 0.00in /  0mm
02:05 14.3 °F /  -9.8 °C 4.0 °F /  -15.6 °C 29.77in /  1008hPa WSW 4.0mph /  6.4km/h 10.0mph /  16.1km/h 63% 0.00in /  0mm
02:10 14.5 °F /  -9.7 °C 4.5 °F /  -15.3 °C 29.77in /  1008hPa WSW 4.0mph /  6.4km/h 9.0mph /  14.5km/h 64% 0.00in /  0mm
02:20 15.0 °F /  -9.4 °C 4.7 °F /  -15.2 °C 29.77in /  1008hPa WSW 4.0mph /  6.4km/h 13.0mph /  20.9km/h 63% 0.00in /  0mm
02:25 15.2 °F /  -9.3 °C 4.5 °F /  -15.3 °C 29.77in /  1008hPa WSW 7.0mph /  11.3km/h 13.0mph /  20.9km/h 62% 0.00in /  0mm
02:35 15.6 °F /  -9.1 °C 4.5 °F /  -15.3 °C 29.77in /  1008hPa WSW 8.0mph /  12.9km/h 15.0mph /  24.1km/h 61% 0.00in /  0mm
02:40 15.7 °F /  -9.1 °C 4.6 °F /  -15.2 °C 29.76in /  1007.7hPa WSW 7.0mph /  11.3km/h 15.0mph /  24.1km/h 61% 0.00in /  0mm
02:45 15.8 °F /  -9 °C 4.7 °F /  -15.2 °C 29.77in /  1008hPa WSW 8.0mph /  12.9km/h 14.0mph /  22.5km/h 61% 0.00in /  0mm
02:50 16.0 °F /  -8.9 °C 4.6 °F /  -15.2 °C 29.77in /  1008hPa WSW 6.0mph /  9.7km/h 11.0mph /  17.7km/h 60% 0.00in /  0mm
02:55 16.1 °F /  -8.8 °C 4.7 °F /  -15.2 °C 29.76in /  1007.7hPa WSW 5.0mph /  8km/h 11.0mph /  17.7km/h 60% 0.00in /  0mm
03:00 16.2 °F /  -8.8 °C 4.4 °F /  -15.3 °C 29.76in /  1007.7hPa WSW 8.0mph /  12.9km/h 15.0mph /  24.1km/h 59% 0.00in /  0mm
03:05 16.3 °F /  -8.7 °C 4.8 °F /  -15.1 °C 29.76in /  1007.7hPa WSW 6.0mph /  9.7km/h 15.0mph /  24.1km/h 60% 0.00in /  0mm
03:10 16.3 °F /  -8.7 °C 4.8 °F /  -15.1 °C 29.76in /  1007.7hPa WSW 5.0mph /  8km/h 10.0mph /  16.1km/h 60% 0.00in /  0mm
03:15 16.4 °F /  -8.7 °C 4.9 °F /  -15.1 °C 29.75in /  1007.3hPa WSW 5.0mph /  8km/h 12.0mph /  19.3km/h 60% 0.00in /  0mm
03:20 16.3 °F /  -8.7 °C 4.8 °F /  -15.1 °C 29.76in /  1007.7hPa SW 5.0mph /  8km/h 12.0mph /  19.3km/h 60% 0.00in /  0mm
03:25 16.0 °F /  -8.9 °C 4.6 °F /  -15.2 °C 29.76in /  1007.7hPa SSW 4.0mph /  6.4km/h 10.0mph /  16.1km/h 60% 0.00in /  0mm
03:30 14.6 °F /  -9.7 °C 3.6 °F /  -15.8 °C 29.76in /  1007.7hPa SSW 4.0mph /  6.4km/h 9.0mph /  14.5km/h 61% 0.00in /  0mm
03:35 13.9 °F /  -10.1 °C 3.6 °F /  -15.8 °C 29.76in /  1007.7hPa SSW 4.0mph /  6.4km/h 9.0mph /  14.5km/h 63% 0.00in /  0mm
03:40 13.6 °F /  -10.2 °C 3.7 °F /  -15.7 °C 29.76in /  1007.7hPa SSW 4.0mph /  6.4km/h 9.0mph /  14.5km/h 64% 0.00in /  0mm
03:45 13.5 °F /  -10.3 °C 3.6 °F /  -15.8 °C 29.76in /  1007.7hPa SW 4.0mph /  6.4km/h 8.0mph /  12.9km/h 64% 0.00in /  0mm
03:50 13.5 °F /  -10.3 °C 3.9 °F /  -15.6 °C 29.76in /  1007.7hPa SSW 4.0mph /  6.4km/h 7.0mph /  11.3km/h 65% 0.00in /  0mm
03:55 13.4 °F /  -10.3 °C 3.5 °F /  -15.8 °C 29.76in /  1007.7hPa SW 4.0mph /  6.4km/h 8.0mph /  12.9km/h 64% 0.00in /  0mm
04:00 13.4 °F /  -10.3 °C 3.5 °F /  -15.8 °C 29.76in /  1007.7hPa SW 5.0mph /  8km/h 11.0mph /  17.7km/h 64% 0.00in /  0mm
04:05 13.6 °F /  -10.2 °C 3.7 °F /  -15.7 °C 29.76in /  1007.7hPa SW 4.0mph /  6.4km/h 11.0mph /  17.7km/h 64% 0.00in /  0mm
04:10 13.9 °F /  -10.1 °C 4.3 °F /  -15.4 °C 29.76in /  1007.7hPa WSW 3.0mph /  4.8km/h 8.0mph /  12.9km/h 65% 0.00in /  0mm
04:20 14.9 °F /  -9.5 °C 4.9 °F /  -15.1 °C 29.77in /  1008hPa SSW 5.0mph /  8km/h 9.0mph /  14.5km/h 64% 0.00in /  0mm
04:25 14.3 °F /  -9.8 °C 4.3 °F /  -15.4 °C 29.76in /  1007.7hPa SW 4.0mph /  6.4km/h 7.0mph /  11.3km/h 64% 0.00in /  0mm
04:30 13.9 °F /  -10.1 °C 4.3 °F /  -15.4 °C 29.76in /  1007.7hPa SSW 3.0mph /  4.8km/h 7.0mph /  11.3km/h 65% 0.00in /  0mm
04:35 13.8 °F /  -10.1 °C 4.5 °F /  -15.3 °C 29.76in /  1007.7hPa SSW 5.0mph /  8km/h 8.0mph /  12.9km/h 66% 0.00in /  0mm
04:45 14.0 °F /  -10 °C 4.7 °F /  -15.2 °C 29.76in /  1007.7hPa SSW 3.0mph /  4.8km/h 9.0mph /  14.5km/h 66% 0.00in /  0mm
04:50 14.0 °F /  -10 °C 5.1 °F /  -14.9 °C 29.76in /  1007.7hPa SSW 4.0mph /  6.4km/h 8.0mph /  12.9km/h 67% 0.00in /  0mm
04:55 13.9 °F /  -10.1 °C 5.3 °F /  -14.8 °C 29.76in /  1007.7hPa SSW 4.0mph /  6.4km/h 8.0mph /  12.9km/h 68% 0.00in /  0mm
05:05 13.7 °F /  -10.2 °C 5.7 °F /  -14.6 °C 29.76in /  1007.7hPa SSW 4.0mph /  6.4km/h 7.0mph /  11.3km/h 70% 0.00in /  0mm
05:10 13.6 °F /  -10.2 °C 5.9 °F /  -14.5 °C 29.76in /  1007.7hPa SSW 2.0mph /  3.2km/h 7.0mph /  11.3km/h 71% 0.00in /  0mm
05:15 13.6 °F /  -10.2 °C 5.9 °F /  -14.5 °C 29.76in /  1007.7hPa SSW 3.0mph /  4.8km/h 7.0mph /  11.3km/h 71% 0.00in /  0mm
05:20 13.6 °F /  -10.2 °C 5.9 °F /  -14.5 °C 29.76in /  1007.7hPa South 4.0mph /  6.4km/h 8.0mph /  12.9km/h 71% 0.00in /  0mm
05:25 13.6 °F /  -10.2 °C 6.3 °F /  -14.3 °C 29.77in /  1008hPa South 2.0mph /  3.2km/h 8.0mph /  12.9km/h 72% 0.00in /  0mm
05:30 13.6 °F /  -10.2 °C 6.6 °F /  -14.1 °C 29.77in /  1008hPa SSW 3.0mph /  4.8km/h 7.0mph /  11.3km/h 73% 0.00in /  0mm
05:35 13.5 °F /  -10.3 °C 7.1 °F /  -13.8 °C 29.77in /  1008hPa SSW 3.0mph /  4.8km/h 7.0mph /  11.3km/h 75% 0.00in /  0mm
05:40 13.5 °F /  -10.3 °C 7.3 °F /  -13.7 °C 29.78in /  1008.4hPa SSW 5.0mph /  8km/h 7.0mph /  11.3km/h 76% 0.00in /  0mm
05:45 13.6 °F /  -10.2 °C 7.7 °F /  -13.5 °C 29.78in /  1008.4hPa SW 2.0mph /  3.2km/h 7.0mph /  11.3km/h 77% 0.00in /  0mm
05:55 13.5 °F /  -10.3 °C 7.6 °F /  -13.6 °C 29.78in /  1008.4hPa SSW 2.0mph /  3.2km/h 6.0mph /  9.7km/h 77% 0.00in /  0mm
06:00 13.5 °F /  -10.3 °C 7.9 °F /  -13.4 °C 29.78in /  1008.4hPa SSW 3.0mph /  4.8km/h 7.0mph /  11.3km/h 78% 0.00in /  0mm
06:05 13.5 °F /  -10.3 °C 7.9 °F /  -13.4 °C 29.78in /  1008.4hPa SSW 2.0mph /  3.2km/h 7.0mph /  11.3km/h 78% 0.00in /  0mm
06:10 13.5 °F /  -10.3 °C 8.2 °F /  -13.2 °C 29.78in /  1008.4hPa SW 4.0mph /  6.4km/h 7.0mph /  11.3km/h 79% 0.00in /  0mm
06:15 13.5 °F /  -10.3 °C 8.5 °F /  -13.1 °C 29.78in /  1008.4hPa SW 5.0mph /  8km/h 8.0mph /  12.9km/h 80% 0.00in /  0mm
06:20 13.6 °F /  -10.2 °C 8.6 °F /  -13 °C 29.78in /  1008.4hPa SSW 4.0mph /  6.4km/h 8.0mph /  12.9km/h 80% 0.00in /  0mm
06:25 13.6 °F /  -10.2 °C 8.6 °F /  -13 °C 29.78in /  1008.4hPa SSW 5.0mph /  8km/h 8.0mph /  12.9km/h 80% 0.00in /  0mm
06:30 13.6 °F /  -10.2 °C 8.6 °F /  -13 °C 29.78in /  1008.4hPa SW 2.0mph /  3.2km/h 8.0mph /  12.9km/h 80% 0.00in /  0mm
06:35 13.7 °F /  -10.2 °C 8.7 °F /  -12.9 °C 29.78in /  1008.4hPa SSW 4.0mph /  6.4km/h 8.0mph /  12.9km/h 80% 0.00in /  0mm
06:40 13.7 °F /  -10.2 °C 8.7 °F /  -12.9 °C 29.79in /  1008.7hPa Calm   7.0mph /  11.3km/h 80% 0.00in /  0mm
06:45 13.8 °F /  -10.1 °C 9.1 °F /  -12.7 °C 29.79in /  1008.7hPa Calm   4.0mph /  6.4km/h 81% 0.00in /  0mm
06:50 13.8 °F /  -10.1 °C 9.1 °F /  -12.7 °C 29.79in /  1008.7hPa SW 1.0mph /  1.6km/h 4.0mph /  6.4km/h 81% 0.00in /  0mm
06:55 13.9 °F /  -10.1 °C 9.2 °F /  -12.7 °C 29.79in /  1008.7hPa SW 1.0mph /  1.6km/h 5.0mph /  8km/h 81% 0.00in /  0mm
07:00 14.0 °F /  -10 °C 9.2 °F /  -12.7 °C 29.79in /  1008.7hPa SSW 1.0mph /  1.6km/h 5.0mph /  8km/h 81% 0.00in /  0mm
07:05 14.0 °F /  -10 °C 11.4 °F /  -11.4 °C 29.79in /  1008.7hPa Calm   5.0mph /  8km/h 89% 0.00in /  0mm
07:10 14.0 °F /  -10 °C 11.4 °F /  -11.4 °C 29.80in /  1009hPa Calm   5.0mph /  8km/h 89% 0.00in /  0mm
07:15 14.0 °F /  -10 °C 9.2 °F /  -12.7 °C 29.80in /  1009hPa Calm   3.0mph /  4.8km/h 81% 0.00in /  0mm
07:20 14.1 °F /  -9.9 °C 9.3 °F /  -12.6 °C 29.80in /  1009hPa SW 2.0mph /  3.2km/h 5.0mph /  8km/h 81% 0.00in /  0mm
07:25 14.1 °F /  -9.9 °C 9.3 °F /  -12.6 °C 29.80in /  1009hPa SSW 2.0mph /  3.2km/h 5.0mph /  8km/h 81% 0.00in /  0mm
07:30 14.2 °F /  -9.9 °C 9.4 °F /  -12.6 °C 29.80in /  1009hPa SSW 1.0mph /  1.6km/h 5.0mph /  8km/h 81% 0.00in /  0mm
07:35 14.3 °F /  -9.8 °C 9.5 °F /  -12.5 °C 29.80in /  1009hPa SSW 2.0mph /  3.2km/h 6.0mph /  9.7km/h 81% 0.00in /  0mm
07:40 14.3 °F /  -9.8 °C 9.5 °F /  -12.5 °C 29.80in /  1009hPa SSW 2.0mph /  3.2km/h 7.0mph /  11.3km/h 81% 0.00in /  0mm
07:45 14.4 °F /  -9.8 °C 9.6 °F /  -12.4 °C 29.80in /  1009hPa SSW 2.0mph /  3.2km/h 7.0mph /  11.3km/h 81% 0.00in /  0mm
07:50 14.5 °F /  -9.7 °C 9.7 °F /  -12.4 °C 29.81in /  1009.4hPa SSW 1.0mph /  1.6km/h 6.0mph /  9.7km/h 81% 0.00in /  0mm
07:55 14.6 °F /  -9.7 °C 9.8 °F /  -12.3 °C 29.81in /  1009.4hPa SSW 1.0mph /  1.6km/h 5.0mph /  8km/h 81% 0.00in /  0mm
08:00 14.7 °F /  -9.6 °C 10.2 °F /  -12.1 °C 29.81in /  1009.4hPa Calm   5.0mph /  8km/h 82% 0.00in /  0mm
08:05 14.8 °F /  -9.6 °C 10.3 °F /  -12.1 °C 29.82in /  1009.7hPa Calm   3.0mph /  4.8km/h 82% 0.00in /  0mm
08:10 14.9 °F /  -9.5 °C 10.4 °F /  -12 °C 29.82in /  1009.7hPa SSW 1.0mph /  1.6km/h 3.0mph /  4.8km/h 82% 0.00in /  0mm
08:15 15.2 °F /  -9.3 °C 10.7 °F /  -11.8 °C 29.82in /  1009.7hPa Calm   3.0mph /  4.8km/h 82% 0.00in /  0mm
08:20 15.4 °F /  -9.2 °C 10.9 °F /  -11.7 °C 29.82in /  1009.7hPa Calm   2.0mph /  3.2km/h 82% 0.00in /  0mm
08:25 15.7 °F /  -9.1 °C 11.2 °F /  -11.6 °C 29.82in /  1009.7hPa Calm   5.0mph /  8km/h 82% 0.00in /  0mm
08:30 16.1 °F /  -8.8 °C 11.6 °F /  -11.3 °C 29.82in /  1009.7hPa Calm   5.0mph /  8km/h 82% 0.00in /  0mm
08:35 16.4 °F /  -8.7 °C 11.9 °F /  -11.2 °C 29.82in /  1009.7hPa Calm   3.0mph /  4.8km/h 82% 0.00in /  0mm
08:45 16.8 °F /  -8.4 °C 12.0 °F /  -11.1 °C 29.82in /  1009.7hPa South 2.0mph /  3.2km/h 3.0mph /  4.8km/h 81% 0.00in /  0mm
08:50 16.7 °F /  -8.5 °C 11.6 °F /  -11.3 °C 29.81in /  1009.4hPa SSW 2.0mph /  3.2km/h 6.0mph /  9.7km/h 80% 0.00in /  0mm
08:55 16.7 °F /  -8.5 °C 11.6 °F /  -11.3 °C 29.81in /  1009.4hPa Calm   6.0mph /  9.7km/h 80% 0.00in /  0mm
09:00 17.1 °F /  -8.3 °C 12.0 °F /  -11.1 °C 29.81in /  1009.4hPa Calm   4.0mph /  6.4km/h 80% 0.00in /  0mm
09:05 17.4 °F /  -8.1 °C 12.3 °F /  -10.9 °C 29.81in /  1009.4hPa Calm   2.0mph /  3.2km/h 80% 0.00in /  0mm
09:10 17.5 °F /  -8.1 °C 12.4 °F /  -10.9 °C 29.81in /  1009.4hPa Calm   3.0mph /  4.8km/h 80% 0.00in /  0mm
09:15 17.9 °F /  -7.8 °C 12.8 °F /  -10.7 °C 29.81in /  1009.4hPa Calm   3.0mph /  4.8km/h 80% 0.00in /  0mm
09:20 17.9 °F /  -7.8 °C 12.5 °F /  -10.8 °C 29.82in /  1009.7hPa Calm   4.0mph /  6.4km/h 79% 0.00in /  0mm
09:25 18.2 °F /  -7.7 °C 12.8 °F /  -10.7 °C 29.81in /  1009.4hPa Calm   4.0mph /  6.4km/h 79% 0.00in /  0mm
09:30 18.7 °F /  -7.4 °C 13.3 °F /  -10.4 °C 29.81in /  1009.4hPa Calm     79% 0.00in /  0mm
09:35 19.2 °F /  -7.1 °C 13.5 °F /  -10.3 °C 29.81in /  1009.4hPa Calm     78% 0.00in /  0mm
09:45 20.3 °F /  -6.5 °C 14.2 °F /  -9.9 °C 29.81in /  1009.4hPa Calm     77% 0.00in /  0mm
09:50 21.1 °F /  -6.1 °C 14.7 °F /  -9.6 °C 29.82in /  1009.7hPa Calm     76% 0.00in /  0mm
09:55 21.8 °F /  -5.7 °C 15.1 °F /  -9.4 °C 29.81in /  1009.4hPa WNW 3.0mph /  4.8km/h 7.0mph /  11.3km/h 75% 0.00in /  0mm
10:00 22.0 °F /  -5.6 °C 14.0 °F /  -10 °C 29.81in /  1009.4hPa WNW 2.0mph /  3.2km/h 7.0mph /  11.3km/h 71% 0.00in /  0mm
10:05 22.1 °F /  -5.5 °C 13.5 °F /  -10.3 °C 29.81in /  1009.4hPa NW 4.0mph /  6.4km/h 6.0mph /  9.7km/h 69% 0.00in /  0mm
10:10 22.5 °F /  -5.3 °C 13.9 °F /  -10.1 °C 29.81in /  1009.4hPa West 2.0mph /  3.2km/h 6.0mph /  9.7km/h 69% 0.00in /  0mm
10:15 22.6 °F /  -5.2 °C 13.6 °F /  -10.2 °C 29.82in /  1009.7hPa WNW 3.0mph /  4.8km/h 6.0mph /  9.7km/h 68% 0.00in /  0mm
10:20 22.6 °F /  -5.2 °C 13.3 °F /  -10.4 °C 29.81in /  1009.4hPa West 1.0mph /  1.6km/h 8.0mph /  12.9km/h 67% 0.00in /  0mm
10:25 23.2 °F /  -4.9 °C 13.5 °F /  -10.3 °C 29.82in /  1009.7hPa NNW 2.0mph /  3.2km/h 8.0mph /  12.9km/h 66% 0.00in /  0mm
10:30 23.5 °F /  -4.7 °C 13.1 °F /  -10.5 °C 29.81in /  1009.4hPa NW 3.0mph /  4.8km/h 7.0mph /  11.3km/h 64% 0.00in /  0mm
10:35 23.8 °F /  -4.6 °C 13.8 °F /  -10.1 °C 29.81in /  1009.4hPa Calm   6.0mph /  9.7km/h 65% 0.00in /  0mm
10:40 24.4 °F /  -4.2 °C 14.0 °F /  -10 °C 29.82in /  1009.7hPa NNE 2.0mph /  3.2km/h 6.0mph /  9.7km/h 64% 0.00in /  0mm
10:45 24.8 °F /  -4 °C 14.0 °F /  -10 °C 29.82in /  1009.7hPa North 1.0mph /  1.6km/h 5.0mph /  8km/h 63% 0.00in /  0mm
10:55 25.5 °F /  -3.6 °C 13.9 °F /  -10.1 °C 29.82in /  1009.7hPa NNE 1.0mph /  1.6km/h 4.0mph /  6.4km/h 61% 0.00in /  0mm
11:00 25.0 °F /  -3.9 °C 13.1 °F /  -10.5 °C 29.82in /  1009.7hPa WSW 2.0mph /  3.2km/h 7.0mph /  11.3km/h 60% 0.00in /  0mm
11:05 24.8 °F /  -4 °C 13.3 °F /  -10.4 °C 29.81in /  1009.4hPa Calm   7.0mph /  11.3km/h 61% 0.00in /  0mm
11:10 24.8 °F /  -4 °C 13.3 °F /  -10.4 °C 29.81in /  1009.4hPa WNW 1.0mph /  1.6km/h 4.0mph /  6.4km/h 61% 0.00in /  0mm
11:15 25.1 °F /  -3.8 °C 13.5 °F /  -10.3 °C 29.81in /  1009.4hPa NW 1.0mph /  1.6km/h 5.0mph /  8km/h 61% 0.00in /  0mm
11:20 25.4 °F /  -3.7 °C 13.8 °F /  -10.1 °C 29.81in /  1009.4hPa Calm   5.0mph /  8km/h 61% 0.00in /  0mm
11:30 25.8 °F /  -3.4 °C 13.8 °F /  -10.1 °C 29.81in /  1009.4hPa Calm   4.0mph /  6.4km/h 60% 0.00in /  0mm
11:35 25.3 °F /  -3.7 °C 13.0 °F /  -10.6 °C 29.81in /  1009.4hPa WNW 1.0mph /  1.6km/h 7.0mph /  11.3km/h 59% 0.00in /  0mm
11:40 25.2 °F /  -3.8 °C 13.3 °F /  -10.4 °C 29.81in /  1009.4hPa NW 2.0mph /  3.2km/h 7.0mph /  11.3km/h 60% 0.00in /  0mm
11:45 25.5 °F /  -3.6 °C 13.9 °F /  -10.1 °C 29.81in /  1009.4hPa NW 2.0mph /  3.2km/h 5.0mph /  8km/h 61% 0.00in /  0mm
11:50 25.6 °F /  -3.6 °C 13.6 °F /  -10.2 °C 29.80in /  1009hPa NW 2.0mph /  3.2km/h 7.0mph /  11.3km/h 60% 0.00in /  0mm
12:00 25.4 °F /  -3.7 °C 13.1 °F /  -10.5 °C 29.80in /  1009hPa Calm   6.0mph /  9.7km/h 59% 0.00in /  0mm
12:05 25.6 °F /  -3.6 °C 13.3 °F /  -10.4 °C 29.80in /  1009hPa NW 5.0mph /  8km/h 9.0mph /  14.5km/h 59% 0.00in /  0mm
12:10 25.7 °F /  -3.5 °C 13.0 °F /  -10.6 °C 29.80in /  1009hPa NW 4.0mph /  6.4km/h 10.0mph /  16.1km/h 58% 0.00in /  0mm
12:15 25.9 °F /  -3.4 °C 13.1 °F /  -10.5 °C 29.80in /  1009hPa NW 5.0mph /  8km/h 11.0mph /  17.7km/h 58% 0.00in /  0mm
12:20 26.0 °F /  -3.3 °C 13.2 °F /  -10.4 °C 29.79in /  1008.7hPa WNW 4.0mph /  6.4km/h 11.0mph /  17.7km/h 58% 0.00in /  0mm
12:25 26.5 °F /  -3.1 °C 13.3 °F /  -10.4 °C 29.79in /  1008.7hPa WNW 4.0mph /  6.4km/h 12.0mph /  19.3km/h 57% 0.00in /  0mm
12:30 26.9 °F /  -2.8 °C 14.1 °F /  -9.9 °C 29.79in /  1008.7hPa West 2.0mph /  3.2km/h 12.0mph /  19.3km/h 58% 0.00in /  0mm
12:40 27.6 °F /  -2.4 °C 13.9 °F /  -10.1 °C 29.79in /  1008.7hPa NNE 2.0mph /  3.2km/h 12.0mph /  19.3km/h 56% 0.00in /  0mm
12:50 28.0 °F /  -2.2 °C 13.5 °F /  -10.3 °C 29.79in /  1008.7hPa North 3.0mph /  4.8km/h 8.0mph /  12.9km/h 54% 0.00in /  0mm
12:55 28.2 °F /  -2.1 °C 13.3 °F /  -10.4 °C 29.79in /  1008.7hPa NW 4.0mph /  6.4km/h 8.0mph /  12.9km/h 53% 0.00in /  0mm
13:00 28.0 °F /  -2.2 °C 12.6 °F /  -10.8 °C 29.79in /  1008.7hPa NNW 3.0mph /  4.8km/h 9.0mph /  14.5km/h 52% 0.00in /  0mm
13:05 28.0 °F /  -2.2 °C 12.6 °F /  -10.8 °C 29.79in /  1008.7hPa WNW 4.0mph /  6.4km/h 9.0mph /  14.5km/h 52% 0.00in /  0mm
13:10 28.3 °F /  -2.1 °C 12.9 °F /  -10.6 °C 29.79in /  1008.7hPa NW 2.0mph /  3.2km/h 8.0mph /  12.9km/h 52% 0.00in /  0mm
13:15 28.7 °F /  -1.8 °C 12.8 °F /  -10.7 °C 29.79in /  1008.7hPa NW 4.0mph /  6.4km/h 8.0mph /  12.9km/h 51% 0.00in /  0mm
13:25 28.5 °F /  -1.9 °C 12.2 °F /  -11 °C 29.79in /  1008.7hPa NW 5.0mph /  8km/h 11.0mph /  17.7km/h 50% 0.00in /  0mm
13:30 28.5 °F /  -1.9 °C 12.7 °F /  -10.7 °C 29.78in /  1008.4hPa NW 3.0mph /  4.8km/h 9.0mph /  14.5km/h 51% 0.00in /  0mm
13:35 28.2 °F /  -2.1 °C 12.4 °F /  -10.9 °C 29.78in /  1008.4hPa NW 3.0mph /  4.8km/h 9.0mph /  14.5km/h 51% 0.00in /  0mm
13:40 28.2 °F /  -2.1 °C 12.4 °F /  -10.9 °C 29.78in /  1008.4hPa WNW 1.0mph /  1.6km/h 9.0mph /  14.5km/h 51% 0.00in /  0mm
13:45 28.5 °F /  -1.9 °C 12.7 °F /  -10.7 °C 29.78in /  1008.4hPa NNW 3.0mph /  4.8km/h 6.0mph /  9.7km/h 51% 0.00in /  0mm
13:50 28.7 °F /  -1.8 °C 12.4 °F /  -10.9 °C 29.78in /  1008.4hPa North 2.0mph /  3.2km/h 8.0mph /  12.9km/h 50% 0.00in /  0mm
13:55 28.8 °F /  -1.8 °C 12.5 °F /  -10.8 °C 29.78in /  1008.4hPa North 2.0mph /  3.2km/h 8.0mph /  12.9km/h 50% 0.00in /  0mm
14:00 28.5 °F /  -1.9 °C 12.7 °F /  -10.7 °C 29.79in /  1008.7hPa NW 4.0mph /  6.4km/h 7.0mph /  11.3km/h 51% 0.00in /  0mm
14:05 27.9 °F /  -2.3 °C 12.5 °F /  -10.8 °C 29.78in /  1008.4hPa North 2.0mph /  3.2km/h 7.0mph /  11.3km/h 52% 0.00in /  0mm
14:10 27.5 °F /  -2.5 °C 12.6 °F /  -10.8 °C 29.79in /  1008.7hPa NW 4.0mph /  6.4km/h 8.0mph /  12.9km/h 53% 0.00in /  0mm
14:15 27.7 °F /  -2.4 °C 13.6 °F /  -10.2 °C 29.79in /  1008.7hPa NNW 2.0mph /  3.2km/h 8.0mph /  12.9km/h 55% 0.00in /  0mm
14:20 28.2 °F /  -2.1 °C 14.1 °F /  -9.9 °C 29.79in /  1008.7hPa NNE 1.0mph /  1.6km/h 5.0mph /  8km/h 55% 0.00in /  0mm
14:30 28.2 °F /  -2.1 °C 13.3 °F /  -10.4 °C 29.79in /  1008.7hPa NW 2.0mph /  3.2km/h 11.0mph /  17.7km/h 53% 0.00in /  0mm
14:40 28.3 °F /  -2.1 °C 13.3 °F /  -10.4 °C 29.79in /  1008.7hPa NW 1.0mph /  1.6km/h 5.0mph /  8km/h 53% 0.00in /  0mm
14:50 27.8 °F /  -2.3 °C 12.9 °F /  -10.6 °C 29.80in /  1009hPa NW 5.0mph /  8km/h 10.0mph /  16.1km/h 53% 0.00in /  0mm
14:55 27.8 °F /  -2.3 °C 13.3 °F /  -10.4 °C 29.79in /  1008.7hPa NW 4.0mph /  6.4km/h 10.0mph /  16.1km/h 54% 0.00in /  0mm
15:00 27.8 °F /  -2.3 °C 13.7 °F /  -10.2 °C 29.79in /  1008.7hPa NW 1.0mph /  1.6km/h 10.0mph /  16.1km/h 55% 0.00in /  0mm
15:05 27.7 °F /  -2.4 °C 13.6 °F /  -10.2 °C 29.80in /  1009hPa NW 3.0mph /  4.8km/h 6.0mph /  9.7km/h 55% 0.00in /  0mm
15:15 27.7 °F /  -2.4 °C 13.2 °F /  -10.4 °C 29.80in /  1009hPa NNW 2.0mph /  3.2km/h 6.0mph /  9.7km/h 54% 0.00in /  0mm
15:20 27.6 °F /  -2.4 °C 13.1 °F /  -10.5 °C 29.80in /  1009hPa Calm   4.0mph /  6.4km/h 54% 0.00in /  0mm
15:25 27.6 °F /  -2.4 °C 12.3 °F /  -10.9 °C 29.80in /  1009hPa NNE 1.0mph /  1.6km/h 5.0mph /  8km/h 52% 0.00in /  0mm
15:30 27.5 °F /  -2.5 °C 12.6 °F /  -10.8 °C 29.80in /  1009hPa WNW 2.0mph /  3.2km/h 5.0mph /  8km/h 53% 0.00in /  0mm
15:40 27.5 °F /  -2.5 °C 12.2 °F /  -11 °C 29.80in /  1009hPa WNW 1.0mph /  1.6km/h 4.0mph /  6.4km/h 52% 0.00in /  0mm
15:45 27.5 °F /  -2.5 °C 12.6 °F /  -10.8 °C 29.81in /  1009.4hPa WNW 1.0mph /  1.6km/h 5.0mph /  8km/h 53% 0.00in /  0mm
15:50 27.5 °F /  -2.5 °C 12.6 °F /  -10.8 °C 29.81in /  1009.4hPa Calm   5.0mph /  8km/h 53% 0.00in /  0mm
16:00 27.4 °F /  -2.6 °C 12.9 °F /  -10.6 °C 29.81in /  1009.4hPa Calm     54% 0.00in /  0mm
16:05 27.3 °F /  -2.6 °C 12.8 °F /  -10.7 °C 29.82in /  1009.7hPa Calm     54% 0.00in /  0mm
16:10 27.2 °F /  -2.7 °C 12.7 °F /  -10.7 °C 29.82in /  1009.7hPa Calm     54% 0.00in /  0mm
16:15 27.0 °F /  -2.8 °C 12.6 °F /  -10.8 °C 29.82in /  1009.7hPa Calm     54% 0.00in /  0mm
16:20 27.0 °F /  -2.8 °C 13.4 °F /  -10.3 °C 29.82in /  1009.7hPa Calm     56% 0.00in /  0mm
16:25 26.8 °F /  -2.9 °C 12.8 °F /  -10.7 °C 29.82in /  1009.7hPa Calm     55% 0.00in /  0mm
16:35 26.6 °F /  -3 °C 12.2 °F /  -11 °C 29.82in /  1009.7hPa Calm   3.0mph /  4.8km/h 54% 0.00in /  0mm
16:45 26.5 °F /  -3.1 °C 12.5 °F /  -10.8 °C 29.82in /  1009.7hPa Calm     55% 0.00in /  0mm
16:50 26.3 °F /  -3.2 °C 13.5 °F /  -10.3 °C 29.82in /  1009.7hPa Calm     58% 0.00in /  0mm
17:00 25.8 °F /  -3.4 °C 13.1 °F /  -10.5 °C 29.83in /  1010hPa Calm   3.0mph /  4.8km/h 58% 0.00in /  0mm
17:05 25.7 °F /  -3.5 °C 13.0 °F /  -10.6 °C 29.83in /  1010hPa Calm   2.0mph /  3.2km/h 58% 0.00in /  0mm
17:10 25.4 °F /  -3.7 °C 13.8 °F /  -10.1 °C 29.83in /  1010hPa Calm     61% 0.00in /  0mm
17:15 25.1 °F /  -3.8 °C 13.2 °F /  -10.4 °C 29.83in /  1010hPa Calm   2.0mph /  3.2km/h 60% 0.00in /  0mm
17:20 25.0 °F /  -3.9 °C 13.8 °F /  -10.1 °C 29.84in /  1010.4hPa Calm   2.0mph /  3.2km/h 62% 0.00in /  0mm
17:25 24.8 °F /  -4 °C 14.0 °F /  -10 °C 29.84in /  1010.4hPa Calm   2.0mph /  3.2km/h 63% 0.00in /  0mm
17:35 24.4 °F /  -4.2 °C 13.6 °F /  -10.2 °C 29.84in /  1010.4hPa Calm   2.0mph /  3.2km/h 63% 0.00in /  0mm
17:40 24.2 °F /  -4.3 °C 13.4 °F /  -10.3 °C 29.84in /  1010.4hPa Calm   2.0mph /  3.2km/h 63% 0.00in /  0mm
17:45 23.9 °F /  -4.5 °C 13.8 °F /  -10.1 °C 29.84in /  1010.4hPa Calm   1.0mph /  1.6km/h 65% 0.00in /  0mm
17:50 23.9 °F /  -4.5 °C 13.5 °F /  -10.3 °C 29.84in /  1010.4hPa Calm   2.0mph /  3.2km/h 64% 0.00in /  0mm
17:55 23.7 °F /  -4.6 °C 13.7 °F /  -10.2 °C 29.84in /  1010.4hPa Calm   2.0mph /  3.2km/h 65% 0.00in /  0mm
18:05 23.4 °F /  -4.8 °C 13.7 °F /  -10.2 °C 29.84in /  1010.4hPa Calm     66% 0.00in /  0mm
18:10 23.1 °F /  -4.9 °C 13.4 °F /  -10.3 °C 29.84in /  1010.4hPa Calm     66% 0.00in /  0mm
18:15 22.7 °F /  -5.2 °C 13.4 °F /  -10.3 °C 29.84in /  1010.4hPa Calm     67% 0.00in /  0mm
18:20 22.4 °F /  -5.3 °C 13.1 °F /  -10.5 °C 29.84in /  1010.4hPa Calm     67% 0.00in /  0mm
18:25 22.2 °F /  -5.4 °C 12.9 °F /  -10.6 °C 29.84in /  1010.4hPa Calm     67% 0.00in /  0mm
18:30 22.1 °F /  -5.5 °C 13.5 °F /  -10.3 °C 29.84in /  1010.4hPa Calm     69% 0.00in /  0mm
18:35 22.0 °F /  -5.6 °C 13.4 °F /  -10.3 °C 29.84in /  1010.4hPa Calm     69% 0.00in /  0mm
18:40 21.8 °F /  -5.7 °C 13.2 °F /  -10.4 °C 29.84in /  1010.4hPa Calm     69% 0.00in /  0mm
18:45 21.7 °F /  -5.7 °C 13.4 °F /  -10.3 °C 29.85in /  1010.7hPa Calm   1.0mph /  1.6km/h 70% 0.00in /  0mm
18:50 21.7 °F /  -5.7 °C 13.4 °F /  -10.3 °C 29.85in /  1010.7hPa Calm   2.0mph /  3.2km/h 70% 0.00in /  0mm
19:00 22.2 °F /  -5.4 °C 13.2 °F /  -10.4 °C 29.85in /  1010.7hPa Calm   3.0mph /  4.8km/h 68% 0.00in /  0mm
19:05 22.6 °F /  -5.2 °C 13.6 °F /  -10.2 °C 29.86in /  1011.1hPa WNW 1.0mph /  1.6km/h 3.0mph /  4.8km/h 68% 0.00in /  0mm
19:10 22.9 °F /  -5.1 °C 13.6 °F /  -10.2 °C 29.86in /  1011.1hPa Calm   3.0mph /  4.8km/h 67% 0.00in /  0mm
19:15 23.1 °F /  -4.9 °C 13.8 °F /  -10.1 °C 29.86in /  1011.1hPa Calm   3.0mph /  4.8km/h 67% 0.00in /  0mm
19:20 23.1 °F /  -4.9 °C 13.4 °F /  -10.3 °C 29.86in /  1011.1hPa Calm   2.0mph /  3.2km/h 66% 0.00in /  0mm
19:25 23.2 °F /  -4.9 °C 13.5 °F /  -10.3 °C 29.85in /  1010.7hPa Calm   2.0mph /  3.2km/h 66% 0.00in /  0mm
19:30 23.2 °F /  -4.9 °C 13.5 °F /  -10.3 °C 29.86in /  1011.1hPa WNW 1.0mph /  1.6km/h 2.0mph /  3.2km/h 66% 0.00in /  0mm
19:35 23.3 °F /  -4.8 °C 13.6 °F /  -10.2 °C 29.86in /  1011.1hPa WNW 1.0mph /  1.6km/h 3.0mph /  4.8km/h 66% 0.00in /  0mm
19:40 23.4 °F /  -4.8 °C 13.4 °F /  -10.3 °C 29.86in /  1011.1hPa Calm   3.0mph /  4.8km/h 65% 0.00in /  0mm
19:45 23.4 °F /  -4.8 °C 13.4 °F /  -10.3 °C 29.86in /  1011.1hPa Calm   3.0mph /  4.8km/h 65% 0.00in /  0mm
19:50 23.4 °F /  -4.8 °C 13.4 °F /  -10.3 °C 29.86in /  1011.1hPa Calm     65% 0.00in /  0mm
19:55 23.3 °F /  -4.8 °C 13.6 °F /  -10.2 °C 29.86in /  1011.1hPa Calm     66% 0.00in /  0mm
20:00 23.3 °F /  -4.8 °C 13.6 °F /  -10.2 °C 29.86in /  1011.1hPa Calm     66% 0.00in /  0mm
20:05 23.1 °F /  -4.9 °C 13.4 °F /  -10.3 °C 29.85in /  1010.7hPa Calm     66% 0.00in /  0mm
20:15 23.0 °F /  -5 °C 13.7 °F /  -10.2 °C 29.85in /  1010.7hPa Calm     67% 0.00in /  0mm
20:20 22.8 °F /  -5.1 °C 13.8 °F /  -10.1 °C 29.86in /  1011.1hPa Calm     68% 0.00in /  0mm
20:25 22.7 °F /  -5.2 °C 13.7 °F /  -10.2 °C 29.86in /  1011.1hPa Calm     68% 0.00in /  0mm
20:35 22.6 °F /  -5.2 °C 14.0 °F /  -10 °C 29.86in /  1011.1hPa Calm     69% 0.00in /  0mm
20:45 22.7 °F /  -5.2 °C 14.4 °F /  -9.8 °C 29.86in /  1011.1hPa Calm     70% 0.00in /  0mm
20:55 22.9 °F /  -5.1 °C 14.9 °F /  -9.5 °C 29.86in /  1011.1hPa Calm     71% 0.00in /  0mm
21:00 22.9 °F /  -5.1 °C 14.9 °F /  -9.5 °C 29.86in /  1011.1hPa Calm     71% 0.00in /  0mm
21:05 22.9 °F /  -5.1 °C 14.9 °F /  -9.5 °C 29.86in /  1011.1hPa Calm     71% 0.00in /  0mm
21:10 22.9 °F /  -5.1 °C 15.2 °F /  -9.3 °C 29.86in /  1011.1hPa Calm     72% 0.00in /  0mm
21:15 23.0 °F /  -5 °C 14.7 °F /  -9.6 °C 29.86in /  1011.1hPa Calm     70% 0.00in /  0mm
21:20 23.0 °F /  -5 °C 14.3 °F /  -9.8 °C 29.86in /  1011.1hPa Calm     69% 0.00in /  0mm
21:25 23.1 °F /  -4.9 °C 14.8 °F /  -9.6 °C 29.86in /  1011.1hPa Calm     70% 0.00in /  0mm
21:30 23.1 °F /  -4.9 °C 15.1 °F /  -9.4 °C 29.86in /  1011.1hPa Calm     71% 0.00in /  0mm
21:35 23.2 °F /  -4.9 °C 15.5 °F /  -9.2 °C 29.86in /  1011.1hPa Calm     72% 0.00in /  0mm
21:40 23.2 °F /  -4.9 °C 15.5 °F /  -9.2 °C 29.86in /  1011.1hPa Calm     72% 0.00in /  0mm
21:45 23.3 °F /  -4.8 °C 15.9 °F /  -8.9 °C 29.86in /  1011.1hPa Calm   2.0mph /  3.2km/h 73% 0.00in /  0mm
21:50 23.3 °F /  -4.8 °C 16.2 °F /  -8.8 °C 29.86in /  1011.1hPa WNW 1.0mph /  1.6km/h 2.0mph /  3.2km/h 74% 0.00in /  0mm
21:55 23.7 °F /  -4.6 °C 16.0 °F /  -8.9 °C 29.86in /  1011.1hPa WNW 2.0mph /  3.2km/h 4.0mph /  6.4km/h 72% 0.00in /  0mm
22:00 25.3 °F /  -3.7 °C 16.2 °F /  -8.8 °C 29.86in /  1011.1hPa WSW 2.0mph /  3.2km/h 6.0mph /  9.7km/h 68% 0.00in /  0mm
22:05 26.5 °F /  -3.1 °C 17.0 °F /  -8.3 °C 29.86in /  1011.1hPa WSW 4.0mph /  6.4km/h 7.0mph /  11.3km/h 67% 0.00in /  0mm
22:10 27.6 °F /  -2.4 °C 17.7 °F /  -7.9 °C 29.86in /  1011.1hPa SW 3.0mph /  4.8km/h 7.0mph /  11.3km/h 66% 0.00in /  0mm
22:15 28.2 °F /  -2.1 °C 18.3 °F /  -7.6 °C 29.86in /  1011.1hPa West 2.0mph /  3.2km/h 7.0mph /  11.3km/h 66% 0.00in /  0mm
22:20 28.3 °F /  -2.1 °C 18.0 °F /  -7.8 °C 29.86in /  1011.1hPa West 1.0mph /  1.6km/h 7.0mph /  11.3km/h 65% 0.00in /  0mm
22:25 28.4 °F /  -2 °C 18.1 °F /  -7.7 °C 29.86in /  1011.1hPa WSW 3.0mph /  4.8km/h 8.0mph /  12.9km/h 65% 0.00in /  0mm
22:30 28.4 °F /  -2 °C 17.8 °F /  -7.9 °C 29.86in /  1011.1hPa WSW 2.0mph /  3.2km/h 8.0mph /  12.9km/h 64% 0.00in /  0mm
22:35 28.2 °F /  -2.1 °C 17.6 °F /  -8 °C 29.86in /  1011.1hPa WSW 2.0mph /  3.2km/h 7.0mph /  11.3km/h 64% 0.00in /  0mm
22:40 28.1 °F /  -2.2 °C 17.5 °F /  -8.1 °C 29.86in /  1011.1hPa WSW 4.0mph /  6.4km/h 7.0mph /  11.3km/h 64% 0.00in /  0mm
22:50 27.7 °F /  -2.4 °C 17.1 °F /  -8.3 °C 29.87in /  1011.4hPa SW 3.0mph /  4.8km/h 8.0mph /  12.9km/h 64% 0.00in /  0mm
22:55 27.5 °F /  -2.5 °C 17.3 °F /  -8.2 °C 29.87in /  1011.4hPa SW 4.0mph /  6.4km/h 8.0mph /  12.9km/h 65% 0.00in /  0mm
23:00 27.5 °F /  -2.5 °C 17.6 °F /  -8 °C 29.87in /  1011.4hPa SSW 3.0mph /  4.8km/h 8.0mph /  12.9km/h 66% 0.00in /  0mm
23:05 27.4 °F /  -2.6 °C 17.5 °F /  -8.1 °C 29.87in /  1011.4hPa WSW 3.0mph /  4.8km/h 8.0mph /  12.9km/h 66% 0.00in /  0mm
23:10 27.5 °F /  -2.5 °C 17.6 °F /  -8 °C 29.87in /  1011.4hPa WSW 2.0mph /  3.2km/h 9.0mph /  14.5km/h 66% 0.00in /  0mm
23:15 27.4 °F /  -2.6 °C 17.5 °F /  -8.1 °C 29.87in /  1011.4hPa SW 4.0mph /  6.4km/h 9.0mph /  14.5km/h 66% 0.00in /  0mm
23:25 27.5 °F /  -2.5 °C 17.6 °F /  -8 °C 29.87in /  1011.4hPa WSW 5.0mph /  8km/h 8.0mph /  12.9km/h 66% 0.00in /  0mm
23:35 28.0 °F /  -2.2 °C 18.5 °F /  -7.5 °C 29.88in /  1011.7hPa WSW 6.0mph /  9.7km/h 10.0mph /  16.1km/h 67% 0.00in /  0mm
23:40 28.2 °F /  -2.1 °C 18.3 °F /  -7.6 °C 29.88in /  1011.7hPa SW 6.0mph /  9.7km/h 10.0mph /  16.1km/h 66% 0.00in /  0mm
23:45 28.0 °F /  -2.2 °C 18.1 °F /  -7.7 °C 29.88in /  1011.7hPa WSW 4.0mph /  6.4km/h 11.0mph /  17.7km/h 66% 0.00in /  0mm
23:50 27.9 °F /  -2.3 °C 18.4 °F /  -7.6 °C 29.88in /  1011.7hPa SW 6.0mph /  9.7km/h 11.0mph /  17.7km/h 67% 0.00in /  0mm
23:55 28.1 °F /  -2.2 °C 18.6 °F /  -7.4 °C 29.89in /  1012.1hPa WSW 5.0mph /  8km/h 11.0mph /  17.7km/h 67% 0.00in /  0mm
Westford Weather
Compliments of Weather Underground

 
 
Current Radar Loop:

Copyright © WestfordWeather.net 2007-2014. All rights reserved.